createdAt,value
2018-12-02T00:00:25.888Z,8.07
2018-12-02T00:02:30.182Z,5.23
2018-12-02T00:04:34.342Z,6.10
2018-12-02T00:06:38.532Z,5.83
2018-12-02T00:08:42.758Z,8.17
2018-12-02T00:10:46.930Z,6.03
2018-12-02T00:12:51.161Z,6.30
2018-12-02T00:14:55.333Z,5.77
2018-12-02T00:16:59.578Z,5.93
2018-12-02T00:19:03.855Z,8.30
2018-12-02T00:21:08.048Z,6.00
2018-12-02T00:23:12.405Z,5.40
2018-12-02T00:25:17.351Z,4.60
2018-12-02T00:27:21.499Z,7.67
2018-12-02T00:29:25.662Z,6.73
2018-12-02T00:31:29.862Z,7.40
2018-12-02T00:33:33.977Z,6.10
2018-12-02T00:35:38.170Z,6.23
2018-12-02T00:37:42.968Z,8.63
2018-12-02T00:39:47.194Z,7.20
2018-12-02T00:41:51.266Z,8.30
2018-12-02T00:43:55.406Z,6.03
2018-12-02T00:45:59.635Z,6.43
2018-12-02T00:48:05.247Z,6.73
2018-12-02T00:50:14.633Z,6.73
2018-12-02T00:52:18.845Z,8.57
2018-12-02T00:54:23.029Z,8.20
2018-12-02T00:56:25.815Z,9.03
2018-12-02T00:58:30.014Z,9.53
2018-12-02T01:00:34.243Z,10.87
2018-12-02T01:02:38.417Z,11.27
2018-12-02T01:04:42.682Z,7.77
2018-12-02T01:06:46.868Z,7.63
2018-12-02T01:08:51.052Z,9.67
2018-12-02T01:10:55.384Z,9.63
2018-12-02T01:13:00.257Z,9.30
2018-12-02T01:15:04.867Z,7.87
2018-12-02T01:17:09.065Z,10.47
2018-12-02T01:19:13.283Z,10.13
2018-12-02T01:21:17.510Z,9.10
2018-12-02T01:23:21.753Z,8.20
2018-12-02T01:25:25.931Z,7.17
2018-12-02T01:27:30.136Z,10.27
2018-12-02T01:29:34.351Z,9.50
2018-12-02T01:31:38.556Z,10.87
2018-12-02T01:33:42.786Z,8.67
2018-12-02T01:35:47.009Z,10.80
2018-12-02T01:37:51.266Z,12.13
2018-12-02T01:39:55.438Z,8.93
2018-12-02T01:41:59.648Z,12.63
2018-12-02T01:44:03.936Z,8.13
2018-12-02T01:46:08.180Z,8.60
2018-12-02T01:48:12.406Z,8.63
2018-12-02T01:50:17.661Z,9.57
2018-12-02T01:52:22.917Z,11.73
2018-12-02T01:54:27.130Z,9.20
2018-12-02T01:56:31.277Z,10.73
2018-12-02T01:58:35.488Z,8.53
2018-12-02T02:00:39.683Z,9.83
2018-12-02T02:02:43.863Z,9.03
2018-12-02T02:04:48.021Z,8.73
2018-12-02T02:06:52.445Z,6.57
2018-12-02T02:08:56.549Z,9.10
2018-12-02T02:11:00.704Z,7.80
2018-12-02T02:13:04.985Z,7.37
2018-12-02T02:15:10.672Z,9.37
2018-12-02T02:17:14.869Z,7.90
2018-12-02T02:19:19.213Z,7.90
2018-12-02T02:21:23.383Z,9.77
2018-12-02T02:23:27.612Z,7.93
2018-12-02T02:25:31.841Z,9.20
2018-12-02T02:27:35.970Z,8.73
2018-12-02T02:29:40.159Z,9.13
2018-12-02T02:31:44.380Z,8.30
2018-12-02T02:33:48.586Z,9.23
2018-12-02T02:35:52.840Z,9.47
2018-12-02T02:37:57.970Z,7.50
2018-12-02T02:40:02.093Z,10.03
2018-12-02T02:42:06.647Z,9.30
2018-12-02T02:44:10.849Z,7.90
2018-12-02T02:46:27.954Z,7.73
2018-12-02T02:48:32.635Z,7.83
2018-12-02T02:50:36.817Z,7.93
2018-12-02T02:52:41.859Z,9.30
2018-12-02T02:54:46.356Z,8.93
2018-12-02T02:56:50.536Z,9.13
2018-12-02T02:58:54.790Z,12.43
2018-12-02T03:01:01.939Z,7.93
2018-12-02T03:03:06.208Z,7.93
2018-12-02T03:05:11.549Z,10.43
2018-12-02T03:07:15.699Z,7.50
2018-12-02T03:09:19.938Z,7.23
2018-12-02T03:11:24.061Z,8.80
2018-12-02T03:13:28.237Z,11.13
2018-12-02T03:15:32.467Z,8.23
2018-12-02T03:17:36.658Z,7.90
2018-12-02T03:19:40.832Z,8.23
2018-12-02T03:21:45.025Z,8.70
2018-12-02T03:23:49.196Z,9.23
2018-12-02T03:25:53.573Z,12.63
2018-12-02T03:27:57.804Z,7.97
2018-12-02T03:30:02.020Z,11.57
2018-12-02T03:32:06.266Z,10.77
2018-12-02T03:34:10.469Z,8.93
2018-12-02T03:36:14.645Z,9.93
2018-12-02T03:38:18.932Z,10.33
2018-12-02T03:40:24.670Z,8.17
2018-12-02T03:42:29.308Z,9.50
2018-12-02T03:44:34.272Z,8.33
2018-12-02T03:46:38.907Z,10.10
2018-12-02T03:48:43.452Z,12.10
2018-12-02T03:50:48.107Z,9.23
2018-12-02T03:52:52.779Z,11.27
2018-12-02T03:54:57.269Z,9.00
2018-12-02T03:57:02.071Z,8.60
2018-12-02T03:59:06.871Z,9.50
2018-12-02T04:01:11.263Z,9.20
2018-12-02T04:03:15.591Z,12.30
2018-12-02T04:05:22.108Z,10.20
2018-12-02T04:07:27.586Z,11.53
2018-12-02T04:09:32.529Z,8.83
2018-12-02T04:11:37.267Z,8.27
2018-12-02T04:13:41.542Z,9.70
2018-12-02T04:15:45.667Z,8.53
2018-12-02T04:17:49.863Z,9.90
2018-12-02T04:19:54.042Z,8.50
2018-12-02T04:21:58.382Z,9.50
2018-12-02T04:24:02.718Z,8.60
2018-12-02T04:26:07.071Z,9.40
2018-12-02T04:28:11.318Z,10.77
2018-12-02T04:30:16.433Z,8.40
2018-12-02T04:32:20.638Z,9.80
2018-12-02T04:34:27.970Z,8.90
2018-12-02T04:36:32.249Z,10.60
2018-12-02T04:38:36.459Z,10.83
2018-12-02T04:40:40.737Z,9.00
2018-12-02T04:42:44.977Z,9.07
2018-12-02T04:44:49.301Z,10.83
2018-12-02T04:46:53.587Z,10.37
2018-12-02T04:48:57.931Z,8.67
2018-12-02T04:51:02.305Z,10.57
2018-12-02T04:53:06.786Z,9.03
2018-12-02T04:55:11.386Z,8.23
2018-12-02T04:57:15.585Z,7.53
2018-12-02T04:59:19.782Z,7.23
2018-12-02T05:01:23.987Z,7.77
2018-12-02T05:03:28.247Z,9.23
2018-12-02T05:05:32.442Z,7.47
2018-12-02T05:07:36.699Z,7.97
2018-12-02T05:09:40.848Z,7.60
2018-12-02T05:11:45.010Z,8.90
2018-12-02T05:13:49.336Z,8.13
2018-12-02T05:15:53.539Z,7.07
2018-12-02T05:17:57.695Z,8.20
2018-12-02T05:20:01.866Z,7.80
2018-12-02T05:22:06.412Z,7.23
2018-12-02T05:24:10.636Z,7.93
2018-12-02T05:26:14.818Z,6.73
2018-12-02T05:28:18.926Z,7.70
2018-12-02T05:30:23.945Z,7.67
2018-12-02T05:32:28.166Z,8.37
2018-12-02T05:34:32.449Z,7.70
2018-12-02T05:36:36.707Z,8.47
2018-12-02T05:38:40.945Z,8.47
2018-12-02T05:40:45.229Z,8.63
2018-12-02T05:42:49.486Z,7.20
2018-12-02T05:44:53.654Z,7.97
2018-12-02T05:46:58.006Z,9.73
2018-12-02T05:49:02.208Z,8.57
2018-12-02T05:51:07.085Z,6.77
2018-12-02T05:53:11.396Z,7.20
2018-12-02T05:55:17.052Z,7.27
2018-12-02T05:57:21.224Z,10.90
2018-12-02T05:59:25.460Z,8.80
2018-12-02T06:01:29.675Z,6.43
2018-12-02T06:03:34.023Z,7.30
2018-12-02T06:05:38.244Z,7.80
2018-12-02T06:07:42.375Z,7.53
2018-12-02T06:09:46.652Z,7.23
2018-12-02T06:11:50.880Z,9.20
2018-12-02T06:13:55.104Z,6.97
2018-12-02T06:15:59.280Z,8.97
2018-12-02T06:18:03.486Z,7.70
2018-12-02T06:20:18.698Z,6.97
2018-12-02T06:22:22.892Z,7.53
2018-12-02T06:24:27.140Z,8.20
2018-12-02T06:26:31.825Z,9.77
2018-12-02T06:28:36.123Z,8.10
2018-12-02T06:30:40.512Z,7.00
2018-12-02T06:32:45.005Z,8.90
2018-12-02T06:34:49.244Z,7.00
2018-12-02T06:36:53.516Z,8.90
2018-12-02T06:38:57.726Z,8.47
2018-12-02T06:41:02.016Z,8.77
2018-12-02T06:43:06.492Z,6.77
2018-12-02T06:45:11.509Z,7.97
2018-12-02T06:47:15.689Z,8.37
2018-12-02T06:49:19.906Z,8.33
2018-12-02T06:51:24.172Z,10.00
2018-12-02T06:53:28.973Z,8.50
2018-12-02T06:55:48.667Z,9.03
2018-12-02T06:58:06.647Z,7.93
2018-12-02T07:04:42.303Z,8.80
2018-12-02T07:06:46.646Z,9.07
2018-12-02T07:08:50.840Z,8.83
2018-12-02T07:10:54.959Z,8.27
2018-12-02T07:12:59.183Z,9.10
2018-12-02T07:15:04.352Z,8.00
2018-12-02T07:17:08.544Z,8.83
2018-12-02T07:19:17.730Z,8.40
2018-12-02T07:21:24.986Z,8.40
2018-12-02T07:23:32.359Z,7.90
2018-12-02T07:25:39.802Z,8.00
2018-12-02T07:27:44.068Z,8.67
2018-12-02T07:29:48.272Z,8.53
2018-12-02T07:31:52.544Z,9.23
2018-12-02T07:33:56.869Z,8.07
2018-12-02T07:36:01.097Z,9.60
2018-12-02T07:38:14.083Z,9.73
2018-12-02T07:40:23.683Z,8.47
2018-12-02T07:42:27.917Z,9.83
2018-12-02T07:44:32.134Z,12.50
2018-12-02T07:46:36.404Z,8.83
2018-12-02T07:48:40.569Z,9.73
2018-12-02T07:50:44.876Z,10.17
2018-12-02T07:52:49.165Z,10.00
2018-12-02T07:54:53.359Z,10.27
2018-12-02T07:56:57.614Z,10.03
2018-12-02T07:59:01.844Z,9.40
2018-12-02T08:01:06.086Z,10.00
2018-12-02T08:03:10.320Z,8.80
2018-12-02T08:05:16.599Z,10.30
2018-12-02T08:07:20.790Z,9.57
2018-12-02T08:09:24.994Z,9.23
2018-12-02T08:11:29.224Z,12.50
2018-12-02T08:13:33.421Z,9.70
2018-12-02T08:15:37.574Z,9.50
2018-12-02T08:17:41.788Z,11.40
2018-12-02T08:19:45.958Z,10.13
2018-12-02T08:21:50.121Z,7.87
2018-12-02T08:23:54.403Z,10.83
2018-12-02T08:25:58.624Z,11.20
2018-12-02T08:28:02.931Z,9.43
2018-12-02T08:30:12.948Z,9.70
2018-12-02T08:32:17.284Z,8.20
2018-12-02T08:34:21.489Z,12.07
2018-12-02T08:36:25.654Z,11.53
2018-12-02T08:38:29.824Z,10.47
2018-12-02T08:40:34.081Z,9.47
2018-12-02T08:42:38.248Z,11.47
2018-12-02T08:44:42.517Z,9.30
2018-12-02T08:46:46.725Z,10.90
2018-12-02T08:48:50.925Z,14.30
2018-12-02T08:50:55.122Z,10.20
2018-12-02T08:52:59.280Z,10.00
2018-12-02T08:55:03.446Z,10.90
2018-12-02T08:57:07.769Z,10.10
2018-12-02T08:59:12.074Z,9.40
2018-12-02T09:01:16.214Z,8.73
2018-12-02T09:03:20.398Z,8.30
2018-12-02T09:05:24.649Z,9.33
2018-12-02T09:07:28.824Z,8.73
2018-12-02T09:09:32.967Z,8.17
2018-12-02T09:11:37.356Z,8.10
2018-12-02T09:13:41.547Z,8.13
2018-12-02T09:15:45.720Z,8.40
2018-12-02T09:17:49.946Z,7.90
2018-12-02T09:19:54.146Z,7.60
2018-12-02T09:21:58.334Z,8.50
2018-12-02T09:24:02.553Z,8.80
2018-12-02T09:26:07.149Z,9.43
2018-12-02T09:28:11.416Z,7.30
2018-12-02T09:30:19.915Z,6.93
2018-12-02T09:32:24.046Z,7.27
2018-12-02T09:34:28.270Z,7.07
2018-12-02T09:36:32.484Z,7.40
2018-12-02T09:38:36.706Z,6.87
2018-12-02T09:40:40.910Z,6.50
2018-12-02T09:42:49.196Z,6.47
2018-12-02T09:44:53.337Z,6.73
2018-12-02T09:46:57.552Z,5.67
2018-12-02T09:49:02.104Z,6.77
2018-12-02T09:51:06.835Z,6.03
2018-12-02T09:53:11.020Z,5.67
2018-12-02T09:55:18.939Z,5.90
2018-12-02T09:57:23.225Z,6.43
2018-12-02T09:59:27.384Z,5.47
2018-12-02T10:01:31.941Z,5.70
2018-12-02T10:03:36.925Z,6.83
2018-12-02T10:05:41.829Z,5.30
2018-12-02T10:07:46.217Z,5.17
2018-12-02T10:09:50.797Z,5.20
2018-12-02T10:11:54.985Z,4.87
2018-12-02T10:13:59.640Z,6.83
2018-12-02T10:16:04.172Z,5.70
2018-12-02T10:18:09.676Z,5.33
2018-12-02T10:20:16.113Z,5.53
2018-12-02T10:22:20.531Z,5.43
2018-12-02T10:24:24.807Z,5.17
2018-12-02T10:26:31.202Z,5.30
2018-12-02T10:28:35.451Z,6.47
2018-12-02T10:30:40.957Z,5.33
2018-12-02T10:32:45.219Z,5.60
2018-12-02T10:34:49.753Z,7.77
2018-12-02T10:36:54.009Z,6.87
2018-12-02T10:38:58.420Z,5.00
2018-12-02T10:41:02.671Z,6.37
2018-12-02T10:43:19.791Z,5.43
2018-12-02T10:45:26.785Z,4.90
2018-12-02T10:47:31.860Z,6.53
2018-12-02T10:49:37.118Z,6.47
2018-12-02T10:51:42.114Z,5.70
2018-12-02T10:53:46.908Z,6.37
2018-12-02T10:55:54.945Z,8.27
2018-12-02T10:58:00.157Z,7.60
2018-12-02T11:00:08.746Z,7.33
2018-12-02T11:02:16.932Z,6.53
2018-12-02T11:04:21.135Z,6.27
2018-12-02T11:06:25.777Z,5.67
2018-12-02T11:08:30.955Z,6.03
2018-12-02T11:10:36.098Z,4.40
2018-12-02T11:12:42.071Z,4.73
2018-12-02T11:14:47.282Z,4.27
2018-12-02T11:16:51.907Z,6.33
2018-12-02T11:18:57.162Z,4.70
2018-12-02T11:21:01.842Z,4.77
2018-12-02T11:23:06.810Z,4.70
2018-12-02T11:25:13.121Z,4.27
2018-12-02T11:27:17.349Z,3.80
2018-12-02T11:29:21.590Z,4.30
2018-12-02T11:31:25.785Z,4.30
2018-12-02T11:33:30.071Z,4.80
2018-12-02T11:35:34.235Z,4.60
2018-12-02T11:37:38.382Z,3.83
2018-12-02T11:39:42.713Z,4.23
2018-12-02T11:41:47.100Z,4.40
2018-12-02T11:43:51.297Z,3.70
2018-12-02T11:45:55.468Z,4.60
2018-12-02T11:47:59.712Z,5.23
2018-12-02T11:50:03.969Z,3.80
2018-12-02T11:52:08.250Z,3.00
2018-12-02T11:54:12.506Z,3.80
2018-12-02T11:56:16.868Z,4.90
2018-12-02T11:58:21.183Z,4.90
2018-12-02T12:00:27.108Z,3.07
2018-12-02T12:02:31.257Z,4.23
2018-12-02T12:04:35.479Z,3.60
2018-12-02T12:06:39.685Z,3.57
2018-12-02T12:08:43.881Z,3.50
2018-12-02T12:10:48.053Z,3.83
2018-12-02T12:12:53.360Z,2.60
2018-12-02T12:14:57.647Z,3.00
2018-12-02T12:17:01.881Z,2.93
2018-12-02T12:19:06.178Z,2.70
2018-12-02T12:21:10.381Z,2.77
2018-12-02T12:23:16.464Z,3.30
2018-12-02T12:25:20.715Z,2.77
2018-12-02T12:27:24.875Z,3.57
2018-12-02T12:29:29.163Z,3.57
2018-12-02T12:31:33.434Z,3.03
2018-12-02T12:33:37.799Z,4.67
2018-12-02T12:35:47.358Z,3.60
2018-12-02T12:37:51.622Z,4.87
2018-12-02T12:39:55.857Z,6.10
2018-12-02T12:42:00.069Z,4.73
2018-12-02T12:44:05.053Z,5.23
2018-12-02T12:46:09.253Z,5.47
2018-12-02T12:48:13.461Z,5.30
2018-12-02T12:50:17.883Z,5.77
2018-12-02T12:52:22.106Z,4.97
2018-12-02T12:54:26.273Z,5.87
2018-12-02T12:56:30.567Z,6.63
2018-12-02T12:58:34.856Z,8.20
2018-12-02T13:00:39.097Z,6.50
2018-12-02T13:02:43.464Z,8.50
2018-12-02T13:04:47.734Z,8.90
2018-12-02T13:06:59.846Z,7.00
2018-12-02T13:09:07.530Z,8.90
2018-12-02T13:11:12.237Z,7.97
2018-12-02T13:13:17.457Z,8.97
2018-12-02T13:15:23.572Z,8.13
2018-12-02T13:17:27.709Z,9.30
2018-12-02T13:19:32.213Z,7.93
2018-12-02T13:21:37.293Z,10.97
2018-12-02T13:23:42.321Z,7.77
2018-12-02T13:25:46.741Z,10.27
2018-12-02T13:27:53.598Z,10.23
2018-12-02T13:29:57.845Z,6.57
2018-12-02T13:32:02.937Z,5.90
2018-12-02T13:34:07.530Z,8.30
2018-12-02T13:36:12.281Z,9.73
2018-12-02T13:38:17.054Z,10.77
2018-12-02T13:40:22.269Z,11.33
2018-12-02T13:42:29.788Z,14.13
2018-12-02T13:44:35.941Z,12.17
2018-12-02T13:46:41.553Z,15.07
2018-12-02T13:48:46.052Z,13.37
2018-12-02T13:50:50.662Z,12.40
2018-12-02T13:52:56.639Z,13.63
2018-12-02T13:55:00.865Z,11.27
2018-12-02T13:57:05.449Z,14.83
2018-12-02T13:59:10.329Z,13.53
2018-12-02T14:01:15.246Z,9.27
2018-12-02T14:03:20.933Z,8.80
2018-12-02T14:05:28.703Z,10.27
2018-12-02T14:07:33.722Z,8.37
2018-12-02T14:09:39.449Z,6.90
2018-12-02T14:11:44.381Z,8.87
2018-12-02T14:13:49.145Z,9.87
2018-12-02T14:16:02.026Z,7.97
2018-12-02T14:18:41.691Z,7.57
2018-12-02T14:20:46.815Z,6.07
2018-12-02T14:22:52.305Z,6.80
2018-12-02T14:25:02.624Z,9.83
2018-12-02T14:27:02.918Z,7.03
2018-12-02T14:29:15.434Z,9.30
2018-12-02T14:31:21.424Z,3.03
2018-12-02T14:33:27.093Z,4.40
2018-12-02T14:35:32.185Z,5.07
2018-12-02T14:37:36.537Z,5.80
2018-12-02T14:39:40.803Z,4.67
2018-12-02T14:41:45.225Z,2.97
2018-12-02T14:43:49.489Z,6.10
2018-12-02T14:45:53.700Z,7.33
2018-12-02T14:47:57.873Z,5.47
2018-12-02T14:50:02.255Z,4.00
2018-12-02T14:52:07.352Z,2.90
2018-12-02T14:54:11.887Z,2.87
2018-12-02T14:56:16.317Z,4.20
2018-12-02T14:58:20.516Z,4.07
2018-12-02T15:00:25.127Z,3.07
2018-12-02T15:02:29.736Z,3.97
2018-12-02T15:04:34.038Z,7.50
2018-12-02T15:06:38.383Z,6.93
2018-12-02T15:08:42.819Z,5.47
2018-12-02T15:10:47.199Z,5.77
2018-12-02T15:12:51.751Z,6.37
2018-12-02T15:14:56.282Z,4.50
2018-12-02T15:17:00.868Z,2.90
2018-12-02T15:19:06.684Z,4.90
2018-12-02T15:21:11.070Z,5.70
2018-12-02T15:23:15.589Z,4.50
2018-12-02T15:25:19.954Z,8.43
2018-12-02T15:27:24.316Z,3.40
2018-12-02T15:29:28.552Z,3.67
2018-12-02T15:31:32.829Z,3.63
2018-12-02T15:33:37.740Z,3.93
2018-12-02T15:35:41.376Z,3.73
2018-12-02T15:37:45.980Z,4.27
2018-12-02T15:39:50.157Z,2.97
2018-12-02T15:41:54.335Z,5.43
2018-12-02T15:43:58.660Z,3.70
2018-12-02T15:46:05.259Z,5.03
2018-12-02T15:48:09.546Z,4.00
2018-12-02T15:50:21.541Z,5.50
2018-12-02T15:52:25.732Z,5.37
2018-12-02T15:54:29.905Z,8.03
2018-12-02T15:56:34.152Z,12.80
2018-12-02T15:58:38.462Z,11.67
2018-12-02T16:00:47.471Z,9.73
2018-12-02T16:02:52.065Z,9.93
2018-12-02T16:04:56.639Z,14.43
2018-12-02T16:07:01.169Z,10.13
2018-12-02T16:09:08.440Z,11.73
2018-12-02T16:11:12.991Z,13.30
2018-12-02T16:13:17.508Z,10.53
2018-12-02T16:15:24.978Z,15.03
2018-12-02T16:17:29.195Z,15.47
2018-12-02T16:19:33.398Z,10.17
2018-12-02T16:21:37.735Z,14.63
2018-12-02T16:23:41.952Z,16.20
2018-12-02T16:25:46.135Z,13.40
2018-12-02T16:27:50.388Z,15.10
2018-12-02T16:29:54.566Z,13.67
2018-12-02T16:31:58.785Z,10.53
2018-12-02T16:34:02.979Z,12.00
2018-12-02T16:36:07.492Z,13.80
2018-12-02T16:38:12.674Z,16.23
2018-12-02T16:40:18.179Z,11.43
2018-12-02T16:42:22.324Z,13.50
2018-12-02T16:44:26.486Z,12.53
2018-12-02T16:46:30.687Z,18.37
2018-12-02T16:48:34.956Z,10.93
2018-12-02T16:50:44.531Z,11.70
2018-12-02T16:52:48.764Z,9.03
2018-12-02T16:54:52.984Z,13.33
2018-12-02T16:56:57.930Z,15.33
2018-12-02T16:59:12.576Z,13.83
2018-12-02T17:01:22.816Z,12.70
2018-12-02T17:03:26.985Z,10.63
2018-12-02T17:05:31.246Z,11.07
2018-12-02T17:07:35.444Z,13.27
2018-12-02T17:09:39.632Z,11.37
2018-12-02T17:11:44.209Z,11.33
2018-12-02T17:13:48.381Z,13.57
2018-12-02T17:15:52.512Z,13.03
2018-12-02T17:17:56.761Z,10.30
2018-12-02T17:20:00.995Z,11.97
2018-12-02T17:22:05.336Z,10.93
2018-12-02T17:24:10.645Z,11.47
2018-12-02T17:26:14.852Z,9.27
2018-12-02T17:28:19.028Z,10.93
2018-12-02T17:30:29.873Z,11.00
2018-12-02T17:32:34.002Z,9.97
2018-12-02T17:34:38.182Z,11.77
2018-12-02T17:36:42.389Z,16.77
2018-12-02T17:38:47.816Z,11.83
2018-12-02T17:40:52.546Z,11.57
2018-12-02T17:42:56.682Z,10.80
2018-12-02T17:45:00.968Z,13.13
2018-12-02T17:47:05.272Z,14.40
2018-12-02T17:49:09.489Z,16.30
2018-12-02T17:51:13.712Z,12.60
2018-12-02T17:53:17.873Z,9.83
2018-12-02T17:55:22.047Z,17.93
2018-12-02T17:57:26.443Z,14.80
2018-12-02T17:59:30.645Z,17.70
2018-12-02T18:01:34.869Z,13.83
2018-12-02T18:03:39.322Z,13.27
2018-12-02T18:05:45.278Z,19.93
2018-12-02T18:07:49.583Z,18.63
2018-12-02T18:09:53.816Z,11.83
2018-12-02T18:11:57.991Z,16.83
2018-12-02T18:14:02.184Z,13.07
2018-12-02T18:16:06.516Z,14.70
2018-12-02T18:18:11.132Z,13.50
2018-12-02T18:20:17.429Z,11.77
2018-12-02T18:22:21.636Z,13.53
2018-12-02T18:24:25.810Z,10.63
2018-12-02T18:26:29.987Z,15.27
2018-12-02T18:28:34.214Z,12.93
2018-12-02T18:30:38.341Z,9.40
2018-12-02T18:32:42.516Z,12.33
2018-12-02T18:34:46.752Z,15.90
2018-12-02T18:36:50.900Z,15.83
2018-12-02T18:38:55.169Z,15.77
2018-12-02T18:41:12.322Z,12.37
2018-12-02T18:43:16.505Z,16.97
2018-12-02T18:45:20.694Z,14.60
2018-12-02T18:47:24.923Z,14.00
2018-12-02T18:49:29.167Z,14.63
2018-12-02T18:51:33.376Z,17.03
2018-12-02T18:53:37.684Z,17.00
2018-12-02T18:55:41.916Z,13.07
2018-12-02T18:57:46.228Z,17.13
2018-12-02T18:59:50.452Z,14.40
2018-12-02T19:01:54.732Z,11.77
2018-12-02T19:03:58.949Z,14.67
2018-12-02T19:06:03.130Z,14.33
2018-12-02T19:08:07.542Z,16.83
2018-12-02T19:10:15.116Z,16.63
2018-12-02T19:12:19.336Z,16.47
2018-12-02T19:14:23.562Z,11.73
2018-12-02T19:16:27.760Z,13.00
2018-12-02T19:18:31.859Z,13.70
2018-12-02T19:20:36.112Z,16.20
2018-12-02T19:22:40.358Z,15.80
2018-12-02T19:24:44.569Z,11.73
2018-12-02T19:26:48.868Z,20.17
2018-12-02T19:28:55.877Z,17.00
2018-12-02T19:31:00.098Z,17.20
2018-12-02T19:33:04.258Z,13.57
2018-12-02T19:35:16.641Z,14.67
2018-12-02T19:37:20.800Z,13.00
2018-12-02T19:39:25.067Z,16.03
2018-12-02T19:41:29.177Z,14.30
2018-12-02T19:43:33.324Z,11.20
2018-12-02T19:45:37.593Z,12.17
2018-12-02T19:47:41.859Z,11.50
2018-12-02T19:49:46.037Z,13.77
2018-12-02T19:51:50.315Z,10.47
2018-12-02T19:53:54.515Z,12.33
2018-12-02T19:55:58.721Z,12.20
2018-12-02T19:58:02.925Z,9.87
2018-12-02T20:00:17.177Z,10.33
2018-12-02T20:02:21.392Z,5.90
2018-12-02T20:04:25.561Z,6.13
2018-12-02T20:06:29.774Z,6.47
2018-12-02T20:08:33.970Z,8.70
2018-12-02T20:10:38.336Z,6.13
2018-12-02T20:12:43.319Z,5.77
2018-12-02T20:14:47.583Z,11.03
2018-12-02T20:16:51.804Z,7.83
2018-12-02T20:18:55.974Z,6.67
2018-12-02T20:21:02.161Z,5.50
2018-12-02T20:23:07.154Z,6.80
2018-12-02T20:25:11.401Z,7.20
2018-12-02T20:27:15.617Z,5.67
2018-12-02T20:29:19.869Z,6.23
2018-12-02T20:31:26.141Z,7.60
2018-12-02T20:33:30.306Z,7.23
2018-12-02T20:35:34.479Z,6.67
2018-12-02T20:37:38.789Z,8.40
2018-12-02T20:39:43.013Z,7.30
2018-12-02T20:41:47.242Z,7.30
2018-12-02T20:43:51.413Z,8.63
2018-12-02T20:45:55.597Z,6.67
2018-12-02T20:47:59.797Z,7.40
2018-12-02T20:50:04.186Z,6.80
2018-12-02T20:52:08.431Z,6.27
2018-12-02T20:54:12.751Z,7.40
2018-12-02T20:56:16.968Z,8.40
2018-12-02T20:58:21.181Z,9.93
2018-12-02T21:00:25.487Z,8.70
2018-12-02T21:02:29.600Z,14.00
2018-12-02T21:04:33.880Z,11.47
2018-12-02T21:06:38.106Z,13.83
2018-12-02T21:08:42.343Z,15.93
2018-12-02T21:10:46.728Z,16.43
2018-12-02T21:12:50.953Z,15.90
2018-12-02T21:14:55.127Z,17.23
2018-12-02T21:16:59.387Z,17.23
2018-12-02T21:19:03.584Z,17.57
2018-12-02T21:21:07.824Z,20.80
2018-12-02T21:23:11.981Z,19.57
2018-12-02T21:25:22.157Z,13.27
2018-12-02T21:27:26.376Z,16.30
2018-12-02T21:29:30.528Z,14.83
2018-12-02T21:31:34.793Z,16.20
2018-12-02T21:33:38.999Z,20.60
2018-12-02T21:35:43.209Z,18.53
2018-12-02T21:37:47.835Z,25.70
2018-12-02T21:39:52.027Z,16.47
2018-12-02T21:41:56.173Z,19.63
2018-12-02T21:44:00.377Z,18.23
2018-12-02T21:46:04.621Z,17.93
2018-12-02T21:48:10.878Z,19.33
2018-12-02T21:50:20.590Z,17.57
2018-12-02T21:52:24.740Z,16.53
2018-12-02T21:54:28.965Z,20.20
2018-12-02T21:56:33.169Z,20.60
2018-12-02T21:58:37.371Z,19.00
2018-12-02T22:00:46.358Z,20.10
2018-12-02T22:02:51.505Z,14.67
2018-12-02T22:04:55.699Z,18.90
2018-12-02T22:06:59.910Z,19.70
2018-12-02T22:09:04.540Z,19.77
2018-12-02T22:11:08.717Z,16.80
2018-12-02T22:13:12.901Z,15.87
2018-12-02T22:15:17.140Z,19.37
2018-12-02T22:17:21.512Z,15.80
2018-12-02T22:19:25.641Z,17.73
2018-12-02T22:21:29.828Z,21.17
2018-12-02T22:23:34.033Z,15.90
2018-12-02T22:25:38.257Z,17.67
2018-12-02T22:27:43.436Z,12.77
2018-12-02T22:29:47.645Z,11.43
2018-12-02T22:31:51.901Z,17.57
2018-12-02T22:33:56.100Z,14.30
2018-12-02T22:36:00.484Z,21.77
2018-12-02T22:38:04.744Z,20.57
2018-12-02T22:40:22.576Z,15.87
2018-12-02T22:42:26.773Z,20.63
2018-12-02T22:44:31.525Z,15.87
2018-12-02T22:46:35.314Z,21.87
2018-12-02T22:48:39.464Z,15.47
2018-12-02T22:50:43.649Z,22.53
2018-12-02T22:52:49.080Z,22.47
2018-12-02T22:54:53.262Z,17.70
2018-12-02T22:56:57.491Z,17.10
2018-12-02T22:59:01.664Z,17.90
2018-12-02T23:01:11.230Z,18.10
2018-12-02T23:03:16.274Z,15.87
2018-12-02T23:05:20.492Z,19.23
2018-12-02T23:07:24.719Z,17.30
2018-12-02T23:09:28.987Z,22.03
2018-12-02T23:11:33.284Z,19.33
2018-12-02T23:13:37.508Z,22.03
2018-12-02T23:15:42.460Z,18.90
2018-12-02T23:17:46.734Z,19.40
2018-12-02T23:19:50.933Z,15.57
2018-12-02T23:21:55.192Z,20.83
2018-12-02T23:23:59.423Z,16.53
2018-12-02T23:26:03.662Z,22.37
2018-12-02T23:28:08.375Z,20.00
2018-12-02T23:30:15.955Z,19.87
2018-12-02T23:32:20.508Z,19.57
2018-12-02T23:34:24.792Z,20.23
2018-12-02T23:36:29.071Z,22.80
2018-12-02T23:38:33.412Z,18.50
2018-12-02T23:40:37.676Z,45.27
2018-12-02T23:42:42.063Z,18.70
2018-12-02T23:44:46.472Z,16.40
2018-12-02T23:46:50.688Z,24.33
2018-12-02T23:48:54.992Z,21.77
2018-12-02T23:50:59.271Z,24.03
2018-12-02T23:53:03.509Z,22.23
2018-12-02T23:55:10.150Z,25.63
2018-12-02T23:57:14.413Z,21.43
2018-12-02T23:59:18.790Z,18.77
